createdAt,value
2024-04-24T00:02:21.056Z,51134.13
2024-04-24T00:04:48.248Z,51136.09
2024-04-24T00:07:16.409Z,51154.00
2024-04-24T00:09:43.603Z,51159.97
2024-04-24T00:12:10.674Z,51150.03
2024-04-24T00:14:37.794Z,51148.03
2024-04-24T00:17:05.334Z,51152.00
2024-04-24T00:19:32.484Z,51140.09
2024-04-24T00:21:59.492Z,51134.13
2024-04-24T00:24:26.686Z,51146.03
2024-04-24T00:26:53.778Z,51146.03
2024-04-24T00:29:20.845Z,51159.97
2024-04-24T00:31:48.051Z,51124.19
2024-04-24T00:34:15.081Z,51146.03
2024-04-24T00:36:42.187Z,51140.09
2024-04-24T00:39:09.328Z,51136.09
2024-04-24T00:41:36.649Z,51116.22
2024-04-24T00:44:04.002Z,51112.25
2024-04-24T00:46:35.126Z,51130.13
2024-04-24T00:49:03.134Z,51128.16
2024-04-24T00:51:31.587Z,51142.06
2024-04-24T00:53:58.805Z,51128.16
2024-04-24T00:56:25.994Z,51122.19
2024-04-24T00:58:53.303Z,51126.16
2024-04-24T01:01:21.407Z,51112.25
2024-04-24T01:03:48.594Z,51120.19
2024-04-24T01:06:15.757Z,51106.28
2024-04-24T01:08:42.919Z,51112.25
2024-04-24T01:11:10.254Z,51128.16
2024-04-24T01:13:37.603Z,51126.16
2024-04-24T01:16:14.101Z,51157.97
2024-04-24T01:19:09.718Z,51116.22
2024-04-24T01:21:48.106Z,51112.25
2024-04-24T01:24:31.609Z,51126.16
2024-04-24T01:26:58.939Z,51126.16
2024-04-24T01:29:26.114Z,51112.25
2024-04-24T01:31:53.317Z,51130.13
2024-04-24T01:34:20.374Z,51132.13
2024-04-24T01:36:47.492Z,51126.16
2024-04-24T01:39:14.542Z,51132.13
2024-04-24T01:41:41.803Z,51140.09
2024-04-24T01:44:08.901Z,51118.22
2024-04-24T01:46:36.034Z,51100.31
2024-04-24T01:49:03.160Z,51116.22
2024-04-24T01:51:30.284Z,51100.31
2024-04-24T01:53:57.416Z,51124.19
2024-04-24T01:56:24.664Z,51102.31
2024-04-24T01:58:52.004Z,51118.22
2024-04-24T02:01:19.170Z,51126.16
2024-04-24T02:03:46.319Z,51124.19
2024-04-24T02:06:13.421Z,51100.31
2024-04-24T02:08:40.466Z,51106.28
2024-04-24T02:11:07.619Z,51104.28
2024-04-24T02:13:34.742Z,51142.06
2024-04-24T02:16:01.835Z,51116.22
2024-04-24T02:18:28.940Z,51122.19
2024-04-24T02:20:55.969Z,51140.09
2024-04-24T02:23:32.225Z,51118.22
2024-04-24T02:25:59.260Z,51108.28
2024-04-24T02:28:26.398Z,51112.25
2024-04-24T02:30:53.478Z,51120.19
2024-04-24T02:33:20.647Z,51076.47
2024-04-24T02:35:47.723Z,51102.31
2024-04-24T02:38:14.859Z,51142.06
2024-04-24T02:40:42.019Z,51120.19
2024-04-24T02:43:09.302Z,51124.19
2024-04-24T02:45:36.528Z,51138.09
2024-04-24T02:48:04.100Z,51134.13
2024-04-24T02:50:31.213Z,51100.31
2024-04-24T02:52:58.495Z,51096.34
2024-04-24T02:55:25.625Z,51128.16
2024-04-24T02:57:52.769Z,51100.31
2024-04-24T03:00:19.802Z,51118.22
2024-04-24T03:02:46.977Z,51108.28
2024-04-24T03:05:14.298Z,51108.28
2024-04-24T03:07:41.504Z,51112.25
2024-04-24T03:10:08.716Z,51138.09
2024-04-24T03:12:35.778Z,51096.34
2024-04-24T03:15:03.075Z,51088.41
2024-04-24T03:17:30.226Z,51106.28
2024-04-24T03:19:57.538Z,51118.22
2024-04-24T03:22:24.650Z,51132.13
2024-04-24T03:24:52.375Z,51082.44
2024-04-24T03:27:19.415Z,51112.25
2024-04-24T03:29:46.497Z,51086.41
2024-04-24T03:32:13.652Z,51120.19
2024-04-24T03:34:40.732Z,51122.19
2024-04-24T03:37:07.850Z,51118.22
2024-04-24T03:39:38.590Z,51106.28
2024-04-24T03:42:06.054Z,51126.16
2024-04-24T03:44:33.290Z,51124.19
2024-04-24T03:47:00.454Z,51126.16
2024-04-24T03:49:27.548Z,51106.28
2024-04-24T03:51:54.700Z,51114.25
2024-04-24T03:54:21.839Z,51102.31
2024-04-24T03:56:48.920Z,51128.16
2024-04-24T03:59:16.002Z,51096.34
2024-04-24T04:01:43.088Z,51108.28
2024-04-24T04:04:10.158Z,51108.28
2024-04-24T04:06:37.217Z,51100.31
2024-04-24T04:09:04.454Z,51130.13
2024-04-24T04:11:31.547Z,51100.31
2024-04-24T04:13:58.633Z,51110.25
2024-04-24T04:16:25.747Z,51110.25
2024-04-24T04:18:52.864Z,51106.28
2024-04-24T04:21:20.021Z,51092.38
2024-04-24T04:23:47.102Z,51128.16
2024-04-24T04:26:14.373Z,51102.31
2024-04-24T04:28:41.475Z,51108.28
2024-04-24T04:31:08.594Z,51130.13
2024-04-24T04:33:35.858Z,51106.28
2024-04-24T04:36:07.180Z,51120.19
2024-04-24T04:38:34.463Z,51106.28
2024-04-24T04:41:01.704Z,51126.16
2024-04-24T04:43:28.837Z,51118.22
2024-04-24T04:45:55.970Z,51116.22
2024-04-24T04:48:24.383Z,51120.19
2024-04-24T04:50:51.486Z,51148.03
2024-04-24T04:53:18.523Z,51118.22
2024-04-24T04:55:45.649Z,51132.13
2024-04-24T04:58:12.655Z,51100.31
2024-04-24T05:00:39.766Z,51112.25
2024-04-24T05:03:08.404Z,51090.38
2024-04-24T05:05:35.526Z,51130.13
2024-04-24T05:08:02.945Z,51134.13
2024-04-24T05:10:30.001Z,51096.34
2024-04-24T05:12:57.093Z,51122.19
2024-04-24T05:15:24.828Z,51098.34
2024-04-24T05:17:51.963Z,51134.13
2024-04-24T05:20:19.102Z,51108.28
2024-04-24T05:22:51.351Z,51096.34
2024-04-24T05:25:19.936Z,51126.16
2024-04-24T05:28:25.501Z,51120.19
2024-04-24T05:30:52.817Z,51128.16
2024-04-24T05:33:20.066Z,51132.13
2024-04-24T05:35:47.202Z,51130.13
2024-04-24T05:38:14.435Z,51108.28
2024-04-24T05:40:41.479Z,51134.13
2024-04-24T05:43:08.608Z,51144.06
2024-04-24T05:45:36.132Z,51126.16
2024-04-24T05:48:03.447Z,51124.19
2024-04-24T05:50:30.819Z,51154.00
2024-04-24T05:52:57.938Z,51146.03
2024-04-24T05:55:26.912Z,51136.09
2024-04-24T05:57:54.000Z,51148.03
2024-04-24T06:00:21.154Z,51138.09
2024-04-24T06:02:48.211Z,51134.13
2024-04-24T06:05:15.345Z,51104.28
2024-04-24T06:07:42.749Z,51136.09
2024-04-24T06:10:09.860Z,51140.09
2024-04-24T06:12:36.927Z,51146.03
2024-04-24T06:15:04.464Z,51144.06
2024-04-24T06:17:31.582Z,51146.03
2024-04-24T06:19:58.685Z,51130.13
2024-04-24T06:22:25.794Z,51116.22
2024-04-24T06:24:52.879Z,51157.97
2024-04-24T06:27:20.018Z,51165.91
2024-04-24T06:29:47.352Z,51150.03
2024-04-24T06:32:14.716Z,51154.00
2024-04-24T06:34:43.171Z,51157.97
2024-04-24T06:37:10.553Z,51163.94
2024-04-24T06:39:37.686Z,51142.06
2024-04-24T06:42:04.841Z,51152.00
2024-04-24T06:44:31.953Z,51154.00
2024-04-24T06:46:59.100Z,51159.97
2024-04-24T06:49:26.299Z,51163.94
2024-04-24T06:51:53.483Z,51150.03
2024-04-24T06:54:20.590Z,51157.97
2024-04-24T06:56:47.663Z,51159.97
2024-04-24T06:59:14.890Z,51169.91
2024-04-24T07:01:42.173Z,51161.94
2024-04-24T07:04:09.389Z,51167.91
2024-04-24T07:06:36.548Z,51165.91
2024-04-24T07:09:03.732Z,51165.91
2024-04-24T07:11:30.881Z,51154.00
2024-04-24T07:13:57.978Z,51155.97
2024-04-24T07:16:25.099Z,51161.94
2024-04-24T07:18:52.205Z,51154.00
2024-04-24T07:21:19.376Z,51193.75
2024-04-24T07:23:46.512Z,51197.72
2024-04-24T07:26:13.684Z,51169.91
2024-04-24T07:28:41.114Z,51177.84
2024-04-24T07:31:08.128Z,51177.84
2024-04-24T07:33:35.237Z,51179.84
2024-04-24T07:36:05.343Z,51185.81
2024-04-24T07:38:34.238Z,51189.78
2024-04-24T07:41:02.886Z,51177.84
2024-04-24T07:43:29.955Z,51161.94
2024-04-24T07:45:57.016Z,51177.84
2024-04-24T07:48:24.292Z,51203.69
2024-04-24T07:50:51.685Z,51171.88
2024-04-24T07:53:19.027Z,51179.84
2024-04-24T07:55:46.207Z,51211.66
2024-04-24T07:58:13.342Z,51169.91
2024-04-24T08:00:40.735Z,51189.78
2024-04-24T08:03:07.943Z,51221.59
2024-04-24T08:05:36.531Z,51201.72
2024-04-24T08:08:03.982Z,51203.69
2024-04-24T08:10:31.109Z,51205.69
2024-04-24T08:12:58.242Z,51217.59
2024-04-24T08:15:25.317Z,51229.53
2024-04-24T08:17:52.452Z,51235.50
2024-04-24T08:20:19.802Z,51241.47
2024-04-24T08:22:46.915Z,51251.41
2024-04-24T08:25:14.178Z,51209.66
2024-04-24T08:27:41.299Z,51229.53
2024-04-24T08:30:08.958Z,51225.56
2024-04-24T08:32:36.180Z,51249.41
2024-04-24T08:35:03.557Z,51213.63
2024-04-24T08:37:30.699Z,51257.38
2024-04-24T08:39:57.806Z,51259.34
2024-04-24T08:42:25.951Z,51241.47
2024-04-24T08:44:56.255Z,51239.47
2024-04-24T08:47:23.603Z,51233.50
2024-04-24T08:49:51.097Z,51243.47
2024-04-24T08:52:20.558Z,51237.50
2024-04-24T08:55:01.422Z,51241.47
2024-04-24T08:57:30.223Z,51241.47
2024-04-24T09:00:03.182Z,51211.66
2024-04-24T09:02:39.609Z,51221.59
2024-04-24T09:05:08.058Z,51225.56
2024-04-24T09:07:37.174Z,51213.63
2024-04-24T09:10:04.670Z,51199.72
2024-04-24T09:12:32.985Z,51231.53
2024-04-24T09:15:00.195Z,51217.59
2024-04-24T09:17:27.476Z,51217.59
2024-04-24T09:19:54.704Z,51211.66
2024-04-24T09:22:21.951Z,51197.72
2024-04-24T09:24:56.788Z,51177.84
2024-04-24T09:27:25.442Z,51197.72
2024-04-24T09:29:52.469Z,51187.78
2024-04-24T09:32:19.799Z,51197.72
2024-04-24T09:34:48.209Z,51157.97
2024-04-24T09:37:15.496Z,51195.75
2024-04-24T09:39:44.746Z,51177.84
2024-04-24T09:42:12.629Z,51165.91
2024-04-24T09:44:47.352Z,51191.78
2024-04-24T09:47:14.679Z,51225.56
2024-04-24T09:49:45.541Z,51197.72
2024-04-24T09:52:18.369Z,51177.84
2024-04-24T09:54:46.595Z,51205.69
2024-04-24T09:57:17.395Z,51171.88
2024-04-24T09:59:55.671Z,51189.78
2024-04-24T10:02:27.101Z,51179.84
2024-04-24T10:05:04.434Z,51247.44
2024-04-24T10:07:38.238Z,51253.41
2024-04-24T10:10:08.191Z,51209.66
2024-04-24T10:12:45.993Z,51265.31
2024-04-24T10:15:25.157Z,51249.41
2024-04-24T10:17:54.563Z,51229.53
2024-04-24T10:20:25.841Z,51213.63
2024-04-24T10:22:54.994Z,51199.72
2024-04-24T10:25:23.689Z,51195.75
2024-04-24T10:27:53.194Z,51183.81
2024-04-24T10:30:24.041Z,51179.84
2024-04-24T10:32:51.318Z,51173.88
2024-04-24T10:35:20.831Z,51193.75
2024-04-24T10:37:58.556Z,51181.81
2024-04-24T10:40:29.334Z,51154.00
2024-04-24T10:43:05.404Z,51189.78
2024-04-24T10:45:42.372Z,51157.97
2024-04-24T10:48:14.565Z,51177.84
2024-04-24T10:50:43.249Z,51213.63
2024-04-24T10:53:17.420Z,51165.91
2024-04-24T10:55:56.969Z,51171.88
2024-04-24T10:58:24.354Z,51193.75
2024-04-24T11:00:51.898Z,51177.84
2024-04-24T11:03:19.380Z,51229.53
2024-04-24T11:05:46.773Z,51209.66
2024-04-24T11:08:20.655Z,51231.53
2024-04-24T11:10:54.315Z,51247.44
2024-04-24T11:13:21.639Z,51263.34
2024-04-24T11:15:58.173Z,51261.34
2024-04-24T11:18:29.810Z,51281.22
2024-04-24T11:20:57.491Z,51269.31
2024-04-24T11:23:24.707Z,51281.22
2024-04-24T11:25:57.950Z,51241.47
2024-04-24T11:28:27.268Z,51257.38
2024-04-24T11:30:54.708Z,51261.34
2024-04-24T11:33:23.524Z,51253.41
2024-04-24T11:35:51.779Z,51251.41
2024-04-24T11:38:19.031Z,51255.38
2024-04-24T11:40:46.252Z,51255.38
2024-04-24T11:43:13.352Z,51257.38
2024-04-24T11:45:40.794Z,51253.41
2024-04-24T11:48:09.120Z,51269.31
2024-04-24T11:50:36.868Z,51283.22
2024-04-24T11:53:04.689Z,51283.22
2024-04-24T11:55:36.499Z,51283.22
2024-04-24T11:58:12.998Z,51368.69
2024-04-24T12:00:41.559Z,51420.41
2024-04-24T12:03:09.868Z,51476.06
2024-04-24T12:05:37.360Z,51515.81
2024-04-24T12:08:05.105Z,51507.88
2024-04-24T12:10:32.226Z,51533.72
2024-04-24T12:13:00.639Z,51575.47
2024-04-24T12:15:27.802Z,51595.34
2024-04-24T12:17:54.965Z,51609.28
2024-04-24T12:20:22.200Z,51649.03
2024-04-24T12:22:49.370Z,51637.09
2024-04-24T12:25:16.472Z,51533.72
2024-04-24T12:27:43.623Z,51436.28
2024-04-24T12:30:11.270Z,51384.59
2024-04-24T12:32:38.533Z,51356.78
2024-04-24T12:35:05.946Z,51340.88
2024-04-24T12:37:34.729Z,51317.00
2024-04-24T12:40:03.258Z,51299.13
2024-04-24T12:42:30.305Z,51315.03
2024-04-24T12:44:57.340Z,51313.03
2024-04-24T12:47:24.699Z,51261.34
2024-04-24T12:49:52.767Z,51245.44
2024-04-24T12:52:19.837Z,51237.50
2024-04-24T12:54:46.918Z,51257.38
2024-04-24T12:57:16.122Z,51255.38
2024-04-24T12:59:43.284Z,51265.31
2024-04-24T13:02:10.440Z,51235.50
2024-04-24T13:04:37.621Z,51271.28
2024-04-24T13:07:04.755Z,51305.09
2024-04-24T13:09:32.341Z,51297.13
2024-04-24T13:11:59.737Z,51315.03
2024-04-24T13:14:26.798Z,51309.06
2024-04-24T13:16:53.845Z,51299.13
2024-04-24T13:19:21.082Z,51293.16
2024-04-24T13:21:48.220Z,51305.09
2024-04-24T13:24:17.488Z,51293.16
2024-04-24T13:26:45.805Z,51303.09
2024-04-24T13:29:12.933Z,51321.00
2024-04-24T13:31:40.024Z,51297.13
2024-04-24T13:34:07.064Z,51319.00
2024-04-24T13:36:34.178Z,51299.13
2024-04-24T13:39:01.363Z,51247.44
2024-04-24T13:41:33.046Z,51277.25
2024-04-24T13:44:02.181Z,51279.25
2024-04-24T13:46:29.408Z,51271.28
2024-04-24T13:48:56.546Z,51283.22
2024-04-24T13:51:25.196Z,51313.03
2024-04-24T13:53:52.304Z,51297.13
2024-04-24T13:56:19.484Z,51313.03
2024-04-24T13:58:46.570Z,51273.28
2024-04-24T14:01:13.664Z,51287.19
2024-04-24T14:03:41.582Z,51287.19
2024-04-24T14:06:08.706Z,51293.16
2024-04-24T14:08:35.856Z,51261.34
2024-04-24T14:11:03.047Z,51263.34
2024-04-24T14:13:30.099Z,51263.34
2024-04-24T14:15:57.138Z,51291.16
2024-04-24T14:18:24.170Z,51261.34
2024-04-24T14:20:51.272Z,51255.38
2024-04-24T14:23:18.314Z,51297.13
2024-04-24T14:25:45.450Z,51319.00
2024-04-24T14:28:12.569Z,51356.78
2024-04-24T14:30:39.675Z,51408.47
2024-04-24T14:33:06.937Z,51408.47
2024-04-24T14:35:34.838Z,51366.72
2024-04-24T14:38:02.025Z,51332.91
2024-04-24T14:40:29.212Z,51299.13
2024-04-24T14:42:56.333Z,51287.19
2024-04-24T14:45:23.833Z,51251.41
2024-04-24T14:47:51.145Z,51293.16
2024-04-24T14:50:18.988Z,51336.91
2024-04-24T14:52:46.413Z,51307.06
2024-04-24T14:55:15.582Z,51287.19
2024-04-24T14:57:42.660Z,51279.25
2024-04-24T15:00:13.605Z,51287.19
2024-04-24T15:02:40.742Z,51261.34
2024-04-24T15:05:07.985Z,51253.41
2024-04-24T15:07:36.878Z,51301.09
2024-04-24T15:10:08.416Z,51322.97
2024-04-24T15:12:35.696Z,51324.97
2024-04-24T15:15:04.424Z,51287.19
2024-04-24T15:17:31.739Z,51344.84
2024-04-24T15:20:00.063Z,51305.09
2024-04-24T15:22:27.294Z,51281.22
2024-04-24T15:24:54.361Z,51285.19
2024-04-24T15:27:21.462Z,51285.19
2024-04-24T15:29:48.521Z,51267.31
2024-04-24T15:32:15.644Z,51285.19
2024-04-24T15:34:42.875Z,51249.41
2024-04-24T15:37:10.382Z,51291.16
2024-04-24T15:39:39.542Z,51340.88
2024-04-24T15:42:07.934Z,51388.59
2024-04-24T15:44:35.366Z,51388.59
2024-04-24T15:47:02.715Z,51442.25
2024-04-24T15:49:29.738Z,51364.72
2024-04-24T15:51:56.790Z,51321.00
2024-04-24T15:54:24.118Z,51289.19
2024-04-24T15:56:51.143Z,51291.16
2024-04-24T15:59:18.309Z,51269.31
2024-04-24T16:01:45.466Z,51263.34
2024-04-24T16:04:12.573Z,51291.16
2024-04-24T16:06:39.697Z,51279.25
2024-04-24T16:09:06.936Z,51285.19
2024-04-24T16:11:34.150Z,51287.19
2024-04-24T16:14:01.309Z,51322.97
2024-04-24T16:16:28.415Z,51414.44
2024-04-24T16:18:55.597Z,51416.41
2024-04-24T16:21:22.754Z,51370.69
2024-04-24T16:23:49.992Z,51342.84
2024-04-24T16:26:17.082Z,51376.66
2024-04-24T16:28:44.188Z,51362.75
2024-04-24T16:31:12.296Z,51319.00
2024-04-24T16:33:39.687Z,51301.09
2024-04-24T16:36:11.592Z,51295.16
2024-04-24T16:38:38.866Z,51293.16
2024-04-24T16:41:07.792Z,51334.91
2024-04-24T16:43:34.926Z,51287.19
2024-04-24T16:46:02.078Z,51263.34
2024-04-24T16:48:29.277Z,51253.41
2024-04-24T16:50:56.439Z,51259.34
2024-04-24T16:53:23.592Z,51247.44
2024-04-24T16:55:52.158Z,51237.50
2024-04-24T16:58:19.198Z,51223.56
2024-04-24T17:00:47.197Z,51233.50
2024-04-24T17:03:14.760Z,51255.38
2024-04-24T17:05:43.007Z,51247.44
2024-04-24T17:08:10.169Z,51277.25
2024-04-24T17:10:39.217Z,51293.16
2024-04-24T17:13:06.406Z,51287.19
2024-04-24T17:15:33.697Z,51279.25
2024-04-24T17:18:00.918Z,51291.16
2024-04-24T17:20:28.222Z,51287.19
2024-04-24T17:22:55.348Z,51289.19
2024-04-24T17:25:22.415Z,51273.28
2024-04-24T17:27:49.556Z,51273.28
2024-04-24T17:30:16.660Z,51231.53
2024-04-24T17:32:44.032Z,51229.53
2024-04-24T17:35:11.339Z,51223.56
2024-04-24T17:37:38.572Z,51253.41
2024-04-24T17:40:06.353Z,51223.56
2024-04-24T17:42:33.648Z,51215.63
2024-04-24T17:45:01.264Z,51229.53
2024-04-24T17:47:28.785Z,51205.69
2024-04-24T17:49:55.934Z,51243.47
2024-04-24T17:52:23.820Z,51227.56
2024-04-24T17:54:50.919Z,51197.72
2024-04-24T17:57:18.156Z,51249.41
2024-04-24T17:59:45.192Z,51245.44
2024-04-24T18:02:12.262Z,51203.69
2024-04-24T18:04:39.421Z,51221.59
2024-04-24T18:07:06.712Z,51185.81
2024-04-24T18:09:33.819Z,51215.63
2024-04-24T18:12:01.129Z,51201.72
2024-04-24T18:14:28.609Z,51229.53
2024-04-24T18:16:55.961Z,51207.66
2024-04-24T18:19:23.128Z,51213.63
2024-04-24T18:21:50.256Z,51185.81
2024-04-24T18:24:17.335Z,51225.56
2024-04-24T18:26:44.442Z,51221.59
2024-04-24T18:29:11.574Z,51219.59
2024-04-24T18:31:38.774Z,51243.47
2024-04-24T18:34:05.841Z,51191.78
2024-04-24T18:36:33.108Z,51229.53
2024-04-24T18:39:00.309Z,51191.78
2024-04-24T18:41:27.436Z,51209.66
2024-04-24T18:43:55.228Z,51203.69
2024-04-24T18:46:22.503Z,51183.81
2024-04-24T18:48:49.798Z,51203.69
2024-04-24T18:51:20.239Z,51199.72
2024-04-24T18:53:47.657Z,51185.81
2024-04-24T18:56:14.902Z,51183.81
2024-04-24T18:58:42.092Z,51191.78
2024-04-24T19:01:09.387Z,51163.94
2024-04-24T19:03:36.610Z,51189.78
2024-04-24T19:06:04.088Z,51201.72
2024-04-24T19:08:31.166Z,51183.81
2024-04-24T19:10:58.514Z,51209.66
2024-04-24T19:13:25.716Z,51201.72
2024-04-24T19:15:52.813Z,51155.97
2024-04-24T19:18:21.686Z,51191.78
2024-04-24T19:20:48.957Z,51173.88
2024-04-24T19:23:16.099Z,51157.97
2024-04-24T19:25:43.188Z,51173.88
2024-04-24T19:28:10.414Z,51173.88
2024-04-24T19:30:37.537Z,51173.88
2024-04-24T19:33:04.951Z,51199.72
2024-04-24T19:35:32.239Z,51189.78
2024-04-24T19:37:59.611Z,51175.88
2024-04-24T19:40:29.862Z,51201.72
2024-04-24T19:43:01.044Z,51189.78
2024-04-24T19:45:28.598Z,51171.88
2024-04-24T19:47:56.789Z,51203.69
2024-04-24T19:50:23.989Z,51161.94
2024-04-24T19:52:51.165Z,51193.75
2024-04-24T19:55:18.565Z,51157.97
2024-04-24T19:57:45.836Z,51171.88
2024-04-24T20:00:13.816Z,51177.84
2024-04-24T20:02:41.147Z,51167.91
2024-04-24T20:05:08.644Z,51193.75
2024-04-24T20:07:36.766Z,51177.84
2024-04-24T20:10:05.756Z,51159.97
2024-04-24T20:12:33.048Z,51191.78
2024-04-24T20:15:00.327Z,51201.72
2024-04-24T20:17:28.190Z,51187.78
2024-04-24T20:19:55.298Z,51163.94
2024-04-24T20:22:22.489Z,51167.91
2024-04-24T20:24:49.616Z,51207.66
2024-04-24T20:27:16.762Z,51152.00
2024-04-24T20:29:44.040Z,51177.84
2024-04-24T20:32:11.298Z,51189.78
2024-04-24T20:34:38.417Z,51165.91
2024-04-24T20:37:05.830Z,51193.75
2024-04-24T20:39:32.869Z,51163.94
2024-04-24T20:42:00.099Z,51155.97
2024-04-24T20:44:27.186Z,51207.66
2024-04-24T20:46:54.305Z,51161.94
2024-04-24T20:49:21.922Z,51183.81
2024-04-24T20:51:49.171Z,51171.88
2024-04-24T20:54:16.231Z,51201.72
2024-04-24T20:56:43.639Z,51159.97
2024-04-24T20:59:11.409Z,51173.88
2024-04-24T21:01:40.261Z,51169.91
2024-04-24T21:04:07.405Z,51169.91
2024-04-24T21:06:34.497Z,51189.78
2024-04-24T21:09:02.973Z,51205.69
2024-04-24T21:11:30.226Z,51169.91
2024-04-24T21:13:58.319Z,51173.88
2024-04-24T21:16:25.818Z,51205.69
2024-04-24T21:18:53.242Z,51169.91
2024-04-24T21:21:21.412Z,51165.91
2024-04-24T21:23:48.808Z,51154.00
2024-04-24T21:26:16.949Z,51197.72
2024-04-24T21:28:44.537Z,51159.97
2024-04-24T21:31:11.560Z,51179.84
2024-04-24T21:33:38.861Z,51159.97
2024-04-24T21:36:06.490Z,51187.78
2024-04-24T21:38:36.078Z,51175.88
2024-04-24T21:41:06.410Z,51175.88
2024-04-24T21:43:33.510Z,51161.94
2024-04-24T21:46:07.576Z,51181.81
2024-04-24T21:48:34.620Z,51138.09
2024-04-24T21:51:01.812Z,51152.00
2024-04-24T21:53:28.899Z,51177.84
2024-04-24T21:55:58.703Z,51167.91
2024-04-24T21:58:26.058Z,51148.03
2024-04-24T22:00:53.209Z,51161.94
2024-04-24T22:03:20.894Z,51155.97
2024-04-24T22:05:48.095Z,51155.97
2024-04-24T22:08:15.187Z,51179.84
2024-04-24T22:10:42.362Z,51165.91
2024-04-24T22:13:09.379Z,51177.84
2024-04-24T22:15:36.940Z,51177.84
2024-04-24T22:18:05.709Z,51165.91
2024-04-24T22:20:32.960Z,51169.91
2024-04-24T22:23:00.090Z,51154.00
2024-04-24T22:25:27.055Z,51155.97
2024-04-24T22:27:54.069Z,51155.97
2024-04-24T22:30:21.203Z,51154.00
2024-04-24T22:32:48.373Z,51157.97
2024-04-24T22:35:15.660Z,51152.00
2024-04-24T22:37:42.670Z,51173.88
2024-04-24T22:40:10.201Z,51173.88
2024-04-24T22:42:37.209Z,51146.03
2024-04-24T22:45:04.890Z,51161.94
2024-04-24T22:47:32.074Z,51163.94
2024-04-24T22:50:00.876Z,51134.13
2024-04-24T22:52:27.902Z,51161.94
2024-04-24T22:54:54.944Z,51167.91
2024-04-24T22:57:22.084Z,51150.03
2024-04-24T22:59:49.156Z,51144.06
2024-04-24T23:02:16.280Z,51163.94
2024-04-24T23:04:43.349Z,51163.94
2024-04-24T23:07:10.564Z,51163.94
2024-04-24T23:09:37.621Z,51152.00
2024-04-24T23:12:05.339Z,51148.03
2024-04-24T23:14:32.590Z,51150.03
2024-04-24T23:16:59.845Z,51150.03
2024-04-24T23:19:27.125Z,51136.09
2024-04-24T23:21:54.249Z,51163.94
2024-04-24T23:24:21.389Z,51150.03
2024-04-24T23:26:49.257Z,51152.00
2024-04-24T23:29:16.715Z,51138.09
2024-04-24T23:31:43.805Z,51128.16
2024-04-24T23:34:10.913Z,51124.19
2024-04-24T23:36:37.955Z,51134.13
2024-04-24T23:39:05.014Z,51136.09
2024-04-24T23:41:32.283Z,51152.00
2024-04-24T23:43:59.312Z,51148.03
2024-04-24T23:46:26.360Z,51144.06
2024-04-24T23:48:53.539Z,51159.97
2024-04-24T23:51:20.659Z,51138.09
2024-04-24T23:53:48.914Z,51126.16
2024-04-24T23:56:16.479Z,51155.97
2024-04-24T23:58:43.647Z,51152.00
